sensor_id;sensor_type;location;lat;lon;timestamp;P1;durP1;ratioP1;P2;durP2;ratioP2
19905;SDS011;10115;50.906;4.438;2023-12-22T00:01:39;14.17;;;12.80;;
19905;SDS011;10115;50.906;4.438;2023-12-22T00:04:05;13.20;;;11.93;;
19905;SDS011;10115;50.906;4.438;2023-12-22T00:06:32;11.33;;;10.23;;
19905;SDS011;10115;50.906;4.438;2023-12-22T00:08:57;17.37;;;12.07;;
19905;SDS011;10115;50.906;4.438;2023-12-22T00:11:23;12.60;;;11.50;;
19905;SDS011;10115;50.906;4.438;2023-12-22T00:13:49;12.23;;;11.03;;
19905;SDS011;10115;50.906;4.438;2023-12-22T00:16:14;12.53;;;10.77;;
19905;SDS011;10115;50.906;4.438;2023-12-22T00:18:40;11.67;;;10.90;;
19905;SDS011;10115;50.906;4.438;2023-12-22T00:21:09;11.63;;;10.93;;
19905;SDS011;10115;50.906;4.438;2023-12-22T00:23:36;12.33;;;11.53;;
19905;SDS011;10115;50.906;4.438;2023-12-22T00:26:02;10.73;;;10.13;;
19905;SDS011;10115;50.906;4.438;2023-12-22T00:28:29;11.13;;;10.27;;
19905;SDS011;10115;50.906;4.438;2023-12-22T00:30:56;10.03;;;9.60;;
19905;SDS011;10115;50.906;4.438;2023-12-22T00:33:22;9.70;;;9.30;;
19905;SDS011;10115;50.906;4.438;2023-12-22T00:35:48;9.73;;;9.23;;
19905;SDS011;10115;50.906;4.438;2023-12-22T00:38:14;10.17;;;9.67;;
19905;SDS011;10115;50.906;4.438;2023-12-22T00:40:39;10.93;;;10.23;;
19905;SDS011;10115;50.906;4.438;2023-12-22T00:43:05;10.90;;;10.30;;
19905;SDS011;10115;50.906;4.438;2023-12-22T00:45:30;10.73;;;9.63;;
19905;SDS011;10115;50.906;4.438;2023-12-22T00:47:57;11.20;;;10.50;;
19905;SDS011;10115;50.906;4.438;2023-12-22T00:50:22;11.50;;;10.70;;
19905;SDS011;10115;50.906;4.438;2023-12-22T00:52:48;12.00;;;10.80;;
19905;SDS011;10115;50.906;4.438;2023-12-22T00:55:13;10.93;;;10.20;;
19905;SDS011;10115;50.906;4.438;2023-12-22T00:57:39;11.50;;;10.37;;
19905;SDS011;10115;50.906;4.438;2023-12-22T01:00:05;11.60;;;10.63;;
19905;SDS011;10115;50.906;4.438;2023-12-22T01:02:34;11.77;;;10.97;;
19905;SDS011;10115;50.906;4.438;2023-12-22T01:04:59;12.17;;;10.93;;
19905;SDS011;10115;50.906;4.438;2023-12-22T01:07:25;10.43;;;10.03;;
19905;SDS011;10115;50.906;4.438;2023-12-22T01:09:51;12.17;;;11.43;;
19905;SDS011;10115;50.906;4.438;2023-12-22T01:12:16;10.97;;;10.43;;
19905;SDS011;10115;50.906;4.438;2023-12-22T01:14:42;12.27;;;11.30;;
19905;SDS011;10115;50.906;4.438;2023-12-22T01:17:10;13.40;;;10.90;;
19905;SDS011;10115;50.906;4.438;2023-12-22T01:19:36;22.37;;;10.87;;
19905;SDS011;10115;50.906;4.438;2023-12-22T01:22:01;14.60;;;12.33;;
19905;SDS011;10115;50.906;4.438;2023-12-22T01:24:27;12.00;;;11.30;;
19905;SDS011;10115;50.906;4.438;2023-12-22T01:26:53;13.87;;;10.63;;
19905;SDS011;10115;50.906;4.438;2023-12-22T01:29:18;10.87;;;10.37;;
19905;SDS011;10115;50.906;4.438;2023-12-22T01:31:44;12.10;;;11.07;;
19905;SDS011;10115;50.906;4.438;2023-12-22T01:34:10;12.13;;;10.97;;
19905;SDS011;10115;50.906;4.438;2023-12-22T01:36:35;11.17;;;10.17;;
19905;SDS011;10115;50.906;4.438;2023-12-22T01:39:01;11.33;;;10.63;;
19905;SDS011;10115;50.906;4.438;2023-12-22T01:41:27;12.13;;;10.93;;
19905;SDS011;10115;50.906;4.438;2023-12-22T01:43:53;12.57;;;9.83;;
19905;SDS011;10115;50.906;4.438;2023-12-22T01:46:18;10.50;;;9.90;;
19905;SDS011;10115;50.906;4.438;2023-12-22T01:48:45;10.63;;;9.90;;
19905;SDS011;10115;50.906;4.438;2023-12-22T01:51:11;15.53;;;10.77;;
19905;SDS011;10115;50.906;4.438;2023-12-22T01:53:37;13.40;;;10.93;;
19905;SDS011;10115;50.906;4.438;2023-12-22T01:56:03;16.70;;;11.40;;
19905;SDS011;10115;50.906;4.438;2023-12-22T01:58:29;11.83;;;10.90;;
19905;SDS011;10115;50.906;4.438;2023-12-22T02:00:57;11.10;;;10.40;;
19905;SDS011;10115;50.906;4.438;2023-12-22T02:03:22;17.33;;;10.57;;
19905;SDS011;10115;50.906;4.438;2023-12-22T02:05:48;11.67;;;10.63;;
19905;SDS011;10115;50.906;4.438;2023-12-22T02:08:15;12.13;;;11.27;;
19905;SDS011;10115;50.906;4.438;2023-12-22T02:10:43;11.70;;;10.83;;
19905;SDS011;10115;50.906;4.438;2023-12-22T02:13:09;11.60;;;11.00;;
19905;SDS011;10115;50.906;4.438;2023-12-22T02:15:36;13.30;;;12.13;;
19905;SDS011;10115;50.906;4.438;2023-12-22T02:18:02;12.07;;;11.17;;
19905;SDS011;10115;50.906;4.438;2023-12-22T02:20:30;13.30;;;10.30;;
19905;SDS011;10115;50.906;4.438;2023-12-22T02:22:57;12.17;;;10.90;;
19905;SDS011;10115;50.906;4.438;2023-12-22T02:25:22;24.00;;;12.63;;
19905;SDS011;10115;50.906;4.438;2023-12-22T02:27:49;12.50;;;11.67;;
19905;SDS011;10115;50.906;4.438;2023-12-22T02:30:52;12.43;;;11.63;;
19905;SDS011;10115;50.906;4.438;2023-12-22T02:33:29;12.17;;;11.57;;
19905;SDS011;10115;50.906;4.438;2023-12-22T02:35:58;11.13;;;10.33;;
19905;SDS011;10115;50.906;4.438;2023-12-22T02:38:28;12.50;;;11.53;;
19905;SDS011;10115;50.906;4.438;2023-12-22T02:40:56;11.53;;;10.93;;
19905;SDS011;10115;50.906;4.438;2023-12-22T02:43:23;13.73;;;12.30;;
19905;SDS011;10115;50.906;4.438;2023-12-22T02:45:51;11.53;;;10.43;;
19905;SDS011;10115;50.906;4.438;2023-12-22T02:48:17;11.37;;;10.77;;
19905;SDS011;10115;50.906;4.438;2023-12-22T02:50:43;15.43;;;10.90;;
19905;SDS011;10115;50.906;4.438;2023-12-22T02:53:08;11.47;;;10.67;;
19905;SDS011;10115;50.906;4.438;2023-12-22T02:55:34;13.87;;;11.40;;
19905;SDS011;10115;50.906;4.438;2023-12-22T02:58:00;10.87;;;10.30;;
19905;SDS011;10115;50.906;4.438;2023-12-22T03:00:25;11.30;;;10.60;;
19905;SDS011;10115;50.906;4.438;2023-12-22T03:02:51;10.43;;;10.03;;
19905;SDS011;10115;50.906;4.438;2023-12-22T03:05:16;12.60;;;11.47;;
19905;SDS011;10115;50.906;4.438;2023-12-22T03:07:42;11.13;;;10.53;;
19905;SDS011;10115;50.906;4.438;2023-12-22T03:10:08;11.33;;;10.57;;
19905;SDS011;10115;50.906;4.438;2023-12-22T03:12:34;12.10;;;11.37;;
19905;SDS011;10115;50.906;4.438;2023-12-22T03:14:59;10.83;;;10.33;;
19905;SDS011;10115;50.906;4.438;2023-12-22T03:17:25;11.40;;;10.63;;
19905;SDS011;10115;50.906;4.438;2023-12-22T03:19:50;10.83;;;10.33;;
19905;SDS011;10115;50.906;4.438;2023-12-22T03:22:16;11.33;;;10.73;;
19905;SDS011;10115;50.906;4.438;2023-12-22T03:24:42;10.43;;;9.93;;
19905;SDS011;10115;50.906;4.438;2023-12-22T03:27:08;11.63;;;10.67;;
19905;SDS011;10115;50.906;4.438;2023-12-22T03:29:33;17.10;;;10.93;;
19905;SDS011;10115;50.906;4.438;2023-12-22T03:31:59;11.17;;;10.47;;
19905;SDS011;10115;50.906;4.438;2023-12-22T03:34:25;12.80;;;11.63;;
19905;SDS011;10115;50.906;4.438;2023-12-22T03:36:50;11.83;;;11.13;;
19905;SDS011;10115;50.906;4.438;2023-12-22T03:39:16;13.03;;;11.07;;
19905;SDS011;10115;50.906;4.438;2023-12-22T03:41:42;12.43;;;11.13;;
19905;SDS011;10115;50.906;4.438;2023-12-22T03:44:07;11.90;;;10.73;;
19905;SDS011;10115;50.906;4.438;2023-12-22T03:46:33;12.37;;;11.10;;
19905;SDS011;10115;50.906;4.438;2023-12-22T03:48:59;11.87;;;10.93;;
19905;SDS011;10115;50.906;4.438;2023-12-22T03:51:24;10.53;;;9.97;;
19905;SDS011;10115;50.906;4.438;2023-12-22T03:53:50;11.23;;;10.37;;
19905;SDS011;10115;50.906;4.438;2023-12-22T03:56:16;10.97;;;10.47;;
19905;SDS011;10115;50.906;4.438;2023-12-22T03:58:41;22.00;;;11.13;;
19905;SDS011;10115;50.906;4.438;2023-12-22T04:01:07;12.07;;;11.13;;
19905;SDS011;10115;50.906;4.438;2023-12-22T04:03:33;11.43;;;10.73;;
19905;SDS011;10115;50.906;4.438;2023-12-22T04:06:05;11.73;;;10.80;;
19905;SDS011;10115;50.906;4.438;2023-12-22T04:08:31;11.20;;;10.60;;
19905;SDS011;10115;50.906;4.438;2023-12-22T04:10:56;11.63;;;11.00;;
19905;SDS011;10115;50.906;4.438;2023-12-22T04:13:22;10.87;;;10.17;;
19905;SDS011;10115;50.906;4.438;2023-12-22T04:15:48;13.07;;;11.57;;
19905;SDS011;10115;50.906;4.438;2023-12-22T04:18:13;11.17;;;10.67;;
19905;SDS011;10115;50.906;4.438;2023-12-22T04:20:39;11.70;;;10.90;;
19905;SDS011;10115;50.906;4.438;2023-12-22T04:23:05;12.47;;;11.10;;
19905;SDS011;10115;50.906;4.438;2023-12-22T04:25:30;12.93;;;12.00;;
19905;SDS011;10115;50.906;4.438;2023-12-22T04:27:56;12.57;;;11.33;;
19905;SDS011;10115;50.906;4.438;2023-12-22T04:30:22;12.47;;;11.27;;
19905;SDS011;10115;50.906;4.438;2023-12-22T04:32:47;11.40;;;10.57;;
19905;SDS011;10115;50.906;4.438;2023-12-22T04:35:13;11.00;;;10.33;;
19905;SDS011;10115;50.906;4.438;2023-12-22T04:37:38;11.03;;;10.43;;
19905;SDS011;10115;50.906;4.438;2023-12-22T04:40:04;12.80;;;11.70;;
19905;SDS011;10115;50.906;4.438;2023-12-22T04:42:30;11.23;;;10.63;;
19905;SDS011;10115;50.906;4.438;2023-12-22T04:44:56;11.20;;;10.67;;
19905;SDS011;10115;50.906;4.438;2023-12-22T04:47:22;11.33;;;10.43;;
19905;SDS011;10115;50.906;4.438;2023-12-22T04:49:48;11.50;;;10.83;;
19905;SDS011;10115;50.906;4.438;2023-12-22T04:52:14;16.30;;;11.30;;
19905;SDS011;10115;50.906;4.438;2023-12-22T04:54:39;10.33;;;9.83;;
19905;SDS011;10115;50.906;4.438;2023-12-22T04:57:05;13.53;;;12.53;;
19905;SDS011;10115;50.906;4.438;2023-12-22T04:59:30;11.57;;;10.37;;
19905;SDS011;10115;50.906;4.438;2023-12-22T05:01:56;12.37;;;11.47;;
19905;SDS011;10115;50.906;4.438;2023-12-22T05:04:22;12.87;;;11.90;;
19905;SDS011;10115;50.906;4.438;2023-12-22T05:06:48;13.57;;;12.70;;
19905;SDS011;10115;50.906;4.438;2023-12-22T05:09:14;11.57;;;10.80;;
19905;SDS011;10115;50.906;4.438;2023-12-22T05:11:40;11.73;;;11.13;;
19905;SDS011;10115;50.906;4.438;2023-12-22T05:14:06;14.90;;;12.87;;
19905;SDS011;10115;50.906;4.438;2023-12-22T05:16:31;12.33;;;11.17;;
19905;SDS011;10115;50.906;4.438;2023-12-22T05:18:57;11.07;;;10.43;;
19905;SDS011;10115;50.906;4.438;2023-12-22T05:21:23;12.23;;;11.30;;
19905;SDS011;10115;50.906;4.438;2023-12-22T05:23:49;11.70;;;11.03;;
19905;SDS011;10115;50.906;4.438;2023-12-22T05:26:18;20.83;;;11.67;;
19905;SDS011;10115;50.906;4.438;2023-12-22T05:28:45;13.87;;;12.77;;
19905;SDS011;10115;50.906;4.438;2023-12-22T05:31:11;13.30;;;12.07;;
19905;SDS011;10115;50.906;4.438;2023-12-22T05:33:37;12.80;;;11.83;;
19905;SDS011;10115;50.906;4.438;2023-12-22T05:36:03;10.20;;;9.70;;
19905;SDS011;10115;50.906;4.438;2023-12-22T05:38:29;10.83;;;10.13;;
19905;SDS011;10115;50.906;4.438;2023-12-22T05:40:55;11.97;;;11.17;;
19905;SDS011;10115;50.906;4.438;2023-12-22T05:43:20;11.17;;;10.67;;
19905;SDS011;10115;50.906;4.438;2023-12-22T05:45:46;11.10;;;10.50;;
19905;SDS011;10115;50.906;4.438;2023-12-22T05:48:11;11.30;;;10.70;;
19905;SDS011;10115;50.906;4.438;2023-12-22T05:50:37;10.97;;;10.37;;
19905;SDS011;10115;50.906;4.438;2023-12-22T05:53:03;10.83;;;10.33;;
19905;SDS011;10115;50.906;4.438;2023-12-22T05:55:28;12.03;;;11.00;;
19905;SDS011;10115;50.906;4.438;2023-12-22T05:57:54;15.33;;;12.87;;
19905;SDS011;10115;50.906;4.438;2023-12-22T06:00:20;11.13;;;10.40;;
19905;SDS011;10115;50.906;4.438;2023-12-22T06:02:46;11.90;;;11.07;;
19905;SDS011;10115;50.906;4.438;2023-12-22T06:05:12;11.07;;;10.53;;
19905;SDS011;10115;50.906;4.438;2023-12-22T06:07:38;14.17;;;11.33;;
19905;SDS011;10115;50.906;4.438;2023-12-22T06:10:05;13.23;;;10.90;;
19905;SDS011;10115;50.906;4.438;2023-12-22T06:12:31;17.17;;;12.13;;
19905;SDS011;10115;50.906;4.438;2023-12-22T06:14:57;11.97;;;11.03;;
19905;SDS011;10115;50.906;4.438;2023-12-22T06:17:23;12.27;;;11.20;;
19905;SDS011;10115;50.906;4.438;2023-12-22T06:19:48;13.67;;;11.97;;
19905;SDS011;10115;50.906;4.438;2023-12-22T06:22:14;10.23;;;9.83;;
19905;SDS011;10115;50.906;4.438;2023-12-22T06:24:40;11.13;;;10.53;;
19905;SDS011;10115;50.906;4.438;2023-12-22T06:27:05;12.37;;;11.47;;
19905;SDS011;10115;50.906;4.438;2023-12-22T06:29:31;11.13;;;10.47;;
19905;SDS011;10115;50.906;4.438;2023-12-22T06:31:58;11.27;;;10.40;;
19905;SDS011;10115;50.906;4.438;2023-12-22T06:34:23;11.60;;;10.43;;
19905;SDS011;10115;50.906;4.438;2023-12-22T06:36:50;14.47;;;10.50;;
19905;SDS011;10115;50.906;4.438;2023-12-22T06:39:16;15.37;;;10.90;;
19905;SDS011;10115;50.906;4.438;2023-12-22T06:41:42;11.07;;;10.57;;
19905;SDS011;10115;50.906;4.438;2023-12-22T06:44:07;11.13;;;10.47;;
19905;SDS011;10115;50.906;4.438;2023-12-22T06:46:35;11.33;;;10.43;;
19905;SDS011;10115;50.906;4.438;2023-12-22T06:49:01;12.27;;;11.30;;
19905;SDS011;10115;50.906;4.438;2023-12-22T06:51:27;10.53;;;10.03;;
19905;SDS011;10115;50.906;4.438;2023-12-22T06:54:01;11.70;;;11.10;;
19905;SDS011;10115;50.906;4.438;2023-12-22T06:56:28;12.30;;;10.80;;
19905;SDS011;10115;50.906;4.438;2023-12-22T06:58:56;11.00;;;10.50;;
19905;SDS011;10115;50.906;4.438;2023-12-22T07:03:49;10.43;;;9.93;;
19905;SDS011;10115;50.906;4.438;2023-12-22T07:06:15;9.87;;;9.47;;
19905;SDS011;10115;50.906;4.438;2023-12-22T07:08:41;10.50;;;9.83;;
19905;SDS011;10115;50.906;4.438;2023-12-22T07:11:08;12.27;;;11.50;;
19905;SDS011;10115;50.906;4.438;2023-12-22T07:13:34;10.57;;;9.90;;
19905;SDS011;10115;50.906;4.438;2023-12-22T07:15:59;11.10;;;10.30;;
19905;SDS011;10115;50.906;4.438;2023-12-22T07:18:27;13.27;;;10.80;;
19905;SDS011;10115;50.906;4.438;2023-12-22T07:20:56;11.00;;;10.50;;
19905;SDS011;10115;50.906;4.438;2023-12-22T07:23:22;10.33;;;9.60;;
19905;SDS011;10115;50.906;4.438;2023-12-22T07:25:48;9.93;;;9.53;;
19905;SDS011;10115;50.906;4.438;2023-12-22T07:28:14;10.57;;;9.93;;
19905;SDS011;10115;50.906;4.438;2023-12-22T07:30:40;10.27;;;9.77;;
19905;SDS011;10115;50.906;4.438;2023-12-22T07:33:06;10.60;;;10.10;;
19905;SDS011;10115;50.906;4.438;2023-12-22T07:35:32;11.97;;;10.87;;
19905;SDS011;10115;50.906;4.438;2023-12-22T07:37:58;13.33;;;9.57;;
19905;SDS011;10115;50.906;4.438;2023-12-22T07:40:24;9.53;;;9.13;;
19905;SDS011;10115;50.906;4.438;2023-12-22T07:42:49;9.97;;;9.57;;
19905;SDS011;10115;50.906;4.438;2023-12-22T07:45:18;10.17;;;9.67;;
19905;SDS011;10115;50.906;4.438;2023-12-22T07:47:43;10.23;;;9.80;;
19905;SDS011;10115;50.906;4.438;2023-12-22T07:50:11;10.43;;;9.83;;
19905;SDS011;10115;50.906;4.438;2023-12-22T07:52:37;10.20;;;9.70;;
19905;SDS011;10115;50.906;4.438;2023-12-22T07:55:07;11.67;;;10.67;;
19905;SDS011;10115;50.906;4.438;2023-12-22T07:57:36;9.77;;;9.37;;
19905;SDS011;10115;50.906;4.438;2023-12-22T08:00:04;11.00;;;10.07;;
19905;SDS011;10115;50.906;4.438;2023-12-22T08:02:30;11.00;;;10.33;;
19905;SDS011;10115;50.906;4.438;2023-12-22T08:04:56;11.77;;;11.27;;
19905;SDS011;10115;50.906;4.438;2023-12-22T08:07:21;11.17;;;10.30;;
19905;SDS011;10115;50.906;4.438;2023-12-22T08:09:47;11.30;;;10.80;;
19905;SDS011;10115;50.906;4.438;2023-12-22T08:12:13;10.90;;;9.80;;
19905;SDS011;10115;50.906;4.438;2023-12-22T08:14:38;11.00;;;10.50;;
19905;SDS011;10115;50.906;4.438;2023-12-22T08:17:04;17.20;;;10.60;;
19905;SDS011;10115;50.906;4.438;2023-12-22T08:19:30;11.00;;;10.50;;
19905;SDS011;10115;50.906;4.438;2023-12-22T08:21:55;10.67;;;10.17;;
19905;SDS011;10115;50.906;4.438;2023-12-22T08:24:21;11.03;;;10.43;;
19905;SDS011;10115;50.906;4.438;2023-12-22T08:26:47;11.07;;;10.20;;
19905;SDS011;10115;50.906;4.438;2023-12-22T08:29:13;11.10;;;10.50;;
19905;SDS011;10115;50.906;4.438;2023-12-22T08:31:39;9.97;;;9.47;;
19905;SDS011;10115;50.906;4.438;2023-12-22T08:34:05;10.53;;;9.87;;
19905;SDS011;10115;50.906;4.438;2023-12-22T08:36:31;10.43;;;9.93;;
19905;SDS011;10115;50.906;4.438;2023-12-22T08:38:57;10.40;;;9.77;;
19905;SDS011;10115;50.906;4.438;2023-12-22T08:41:22;13.33;;;12.73;;
19905;SDS011;10115;50.906;4.438;2023-12-22T08:43:49;13.53;;;12.93;;
19905;SDS011;10115;50.906;4.438;2023-12-22T08:46:14;15.40;;;14.70;;
19905;SDS011;10115;50.906;4.438;2023-12-22T08:48:40;14.20;;;13.60;;
19905;SDS011;10115;50.906;4.438;2023-12-22T08:51:06;12.33;;;11.73;;
19905;SDS011;10115;50.906;4.438;2023-12-22T08:53:32;13.03;;;12.43;;
19905;SDS011;10115;50.906;4.438;2023-12-22T08:56:01;13.80;;;13.00;;
19905;SDS011;10115;50.906;4.438;2023-12-22T08:58:27;17.30;;;16.57;;
19905;SDS011;10115;50.906;4.438;2023-12-22T09:00:53;14.40;;;13.73;;
19905;SDS011;10115;50.906;4.438;2023-12-22T09:03:18;12.77;;;11.93;;
19905;SDS011;10115;50.906;4.438;2023-12-22T09:05:44;12.00;;;11.43;;
19905;SDS011;10115;50.906;4.438;2023-12-22T09:08:09;12.57;;;11.97;;
19905;SDS011;10115;50.906;4.438;2023-12-22T09:10:35;14.97;;;13.73;;
19905;SDS011;10115;50.906;4.438;2023-12-22T09:13:01;12.27;;;11.67;;
19905;SDS011;10115;50.906;4.438;2023-12-22T09:15:27;12.93;;;12.37;;
19905;SDS011;10115;50.906;4.438;2023-12-22T09:17:52;14.40;;;13.77;;
19905;SDS011;10115;50.906;4.438;2023-12-22T09:20:20;12.53;;;11.83;;
19905;SDS011;10115;50.906;4.438;2023-12-22T09:22:46;12.00;;;11.50;;
19905;SDS011;10115;50.906;4.438;2023-12-22T09:25:12;14.17;;;13.20;;
19905;SDS011;10115;50.906;4.438;2023-12-22T09:27:38;12.93;;;12.23;;
19905;SDS011;10115;50.906;4.438;2023-12-22T09:30:04;11.97;;;11.07;;
19905;SDS011;10115;50.906;4.438;2023-12-22T09:32:32;10.57;;;10.07;;
19905;SDS011;10115;50.906;4.438;2023-12-22T09:34:57;11.20;;;10.70;;
19905;SDS011;10115;50.906;4.438;2023-12-22T09:37:25;10.53;;;9.80;;
19905;SDS011;10115;50.906;4.438;2023-12-22T09:39:51;11.43;;;10.63;;
19905;SDS011;10115;50.906;4.438;2023-12-22T09:42:16;10.63;;;10.03;;
19905;SDS011;10115;50.906;4.438;2023-12-22T09:44:42;16.03;;;10.27;;
19905;SDS011;10115;50.906;4.438;2023-12-22T09:47:09;9.90;;;9.50;;
19905;SDS011;10115;50.906;4.438;2023-12-22T09:49:37;9.23;;;8.83;;
19905;SDS011;10115;50.906;4.438;2023-12-22T09:52:06;14.33;;;9.60;;
19905;SDS011;10115;50.906;4.438;2023-12-22T09:54:32;10.00;;;9.40;;
19905;SDS011;10115;50.906;4.438;2023-12-22T09:57:01;9.30;;;8.90;;
19905;SDS011;10115;50.906;4.438;2023-12-22T09:59:28;8.80;;;8.40;;
19905;SDS011;10115;50.906;4.438;2023-12-22T10:01:55;10.13;;;9.53;;
19905;SDS011;10115;50.906;4.438;2023-12-22T10:04:22;9.10;;;8.70;;
19905;SDS011;10115;50.906;4.438;2023-12-22T10:06:48;9.17;;;8.77;;
19905;SDS011;10115;50.906;4.438;2023-12-22T10:09:15;8.83;;;8.50;;
19905;SDS011;10115;50.906;4.438;2023-12-22T10:11:43;9.93;;;9.20;;
19905;SDS011;10115;50.906;4.438;2023-12-22T10:14:09;9.87;;;9.37;;
19905;SDS011;10115;50.906;4.438;2023-12-22T10:16:36;9.03;;;8.63;;
19905;SDS011;10115;50.906;4.438;2023-12-22T10:19:03;10.27;;;9.53;;
19905;SDS011;10115;50.906;4.438;2023-12-22T10:21:29;9.40;;;9.00;;
19905;SDS011;10115;50.906;4.438;2023-12-22T10:23:56;10.47;;;9.97;;
19905;SDS011;10115;50.906;4.438;2023-12-22T10:26:22;11.20;;;10.17;;
19905;SDS011;10115;50.906;4.438;2023-12-22T10:28:48;9.47;;;9.07;;
19905;SDS011;10115;50.906;4.438;2023-12-22T10:31:17;9.90;;;9.17;;
19905;SDS011;10115;50.906;4.438;2023-12-22T10:33:43;9.87;;;9.47;;
19905;SDS011;10115;50.906;4.438;2023-12-22T10:36:09;9.70;;;9.30;;
19905;SDS011;10115;50.906;4.438;2023-12-22T10:38:35;9.00;;;8.60;;
19905;SDS011;10115;50.906;4.438;2023-12-22T10:41:01;10.23;;;9.53;;
19905;SDS011;10115;50.906;4.438;2023-12-22T10:43:28;10.00;;;9.50;;
19905;SDS011;10115;50.906;4.438;2023-12-22T10:45:54;9.77;;;9.13;;
19905;SDS011;10115;50.906;4.438;2023-12-22T10:48:20;8.97;;;8.57;;
19905;SDS011;10115;50.906;4.438;2023-12-22T10:50:48;8.97;;;8.50;;
19905;SDS011;10115;50.906;4.438;2023-12-22T10:53:14;9.13;;;8.73;;
19905;SDS011;10115;50.906;4.438;2023-12-22T10:55:40;9.50;;;9.10;;
19905;SDS011;10115;50.906;4.438;2023-12-22T10:58:06;9.47;;;9.07;;
19905;SDS011;10115;50.906;4.438;2023-12-22T11:00:33;9.83;;;8.80;;
19905;SDS011;10115;50.906;4.438;2023-12-22T11:03:03;9.43;;;8.93;;
19905;SDS011;10115;50.906;4.438;2023-12-22T11:05:33;9.23;;;8.83;;
19905;SDS011;10115;50.906;4.438;2023-12-22T11:08:01;9.40;;;9.00;;
19905;SDS011;10115;50.906;4.438;2023-12-22T11:10:31;9.30;;;8.90;;
19905;SDS011;10115;50.906;4.438;2023-12-22T11:12:59;9.47;;;9.07;;
19905;SDS011;10115;50.906;4.438;2023-12-22T11:15:25;9.77;;;9.27;;
19905;SDS011;10115;50.906;4.438;2023-12-22T11:17:52;9.63;;;9.13;;
19905;SDS011;10115;50.906;4.438;2023-12-22T11:20:22;8.83;;;8.47;;
19905;SDS011;10115;50.906;4.438;2023-12-22T11:22:49;9.00;;;8.40;;
19905;SDS011;10115;50.906;4.438;2023-12-22T11:25:16;10.20;;;9.73;;
19905;SDS011;10115;50.906;4.438;2023-12-22T11:27:43;14.30;;;13.60;;
19905;SDS011;10115;50.906;4.438;2023-12-22T11:30:12;11.83;;;11.23;;
19905;SDS011;10115;50.906;4.438;2023-12-22T11:32:39;15.60;;;14.90;;
19905;SDS011;10115;50.906;4.438;2023-12-22T11:35:05;10.83;;;10.33;;
19905;SDS011;10115;50.906;4.438;2023-12-22T11:37:32;14.33;;;13.73;;
19905;SDS011;10115;50.906;4.438;2023-12-22T11:40:01;12.27;;;11.77;;
19905;SDS011;10115;50.906;4.438;2023-12-22T11:42:28;13.47;;;12.80;;
19905;SDS011;10115;50.906;4.438;2023-12-22T11:44:57;11.33;;;10.73;;
19905;SDS011;10115;50.906;4.438;2023-12-22T11:47:23;11.27;;;10.77;;
19905;SDS011;10115;50.906;4.438;2023-12-22T11:49:49;10.43;;;10.03;;
19905;SDS011;10115;50.906;4.438;2023-12-22T11:52:18;11.47;;;10.97;;
19905;SDS011;10115;50.906;4.438;2023-12-22T11:54:57;10.80;;;10.40;;
19905;SDS011;10115;50.906;4.438;2023-12-22T11:57:33;11.57;;;10.97;;
19905;SDS011;10115;50.906;4.438;2023-12-22T12:00:05;11.17;;;10.47;;
19905;SDS011;10115;50.906;4.438;2023-12-22T12:02:53;10.37;;;9.90;;
19905;SDS011;10115;50.906;4.438;2023-12-22T12:05:20;11.20;;;10.70;;
19905;SDS011;10115;50.906;4.438;2023-12-22T12:07:46;10.30;;;9.80;;
19905;SDS011;10115;50.906;4.438;2023-12-22T12:13:06;11.43;;;10.60;;
19905;SDS011;10115;50.906;4.438;2023-12-22T12:15:33;10.00;;;9.50;;
19905;SDS011;10115;50.906;4.438;2023-12-22T12:18:00;10.67;;;10.07;;
19905;SDS011;10115;50.906;4.438;2023-12-22T12:20:26;11.13;;;10.63;;
19905;SDS011;10115;50.906;4.438;2023-12-22T12:22:53;11.07;;;10.37;;
19905;SDS011;10115;50.906;4.438;2023-12-22T12:25:21;12.33;;;11.63;;
19905;SDS011;10115;50.906;4.438;2023-12-22T12:28:00;11.30;;;10.70;;
19905;SDS011;10115;50.906;4.438;2023-12-22T12:30:26;13.23;;;12.33;;
19905;SDS011;10115;50.906;4.438;2023-12-22T12:32:52;12.17;;;11.67;;
19905;SDS011;10115;50.906;4.438;2023-12-22T12:35:18;10.63;;;10.23;;
19905;SDS011;10115;50.906;4.438;2023-12-22T12:37:44;10.93;;;10.23;;
19905;SDS011;10115;50.906;4.438;2023-12-22T12:40:13;11.53;;;10.67;;
19905;SDS011;10115;50.906;4.438;2023-12-22T12:42:43;11.20;;;10.70;;
19905;SDS011;10115;50.906;4.438;2023-12-22T12:45:09;10.67;;;10.13;;
19905;SDS011;10115;50.906;4.438;2023-12-22T12:47:35;10.57;;;10.17;;
19905;SDS011;10115;50.906;4.438;2023-12-22T12:50:01;11.80;;;11.30;;
19905;SDS011;10115;50.906;4.438;2023-12-22T12:52:28;11.60;;;11.10;;
19905;SDS011;10115;50.906;4.438;2023-12-22T12:54:54;10.73;;;10.33;;
19905;SDS011;10115;50.906;4.438;2023-12-22T12:57:20;11.97;;;11.47;;
19905;SDS011;10115;50.906;4.438;2023-12-22T12:59:47;11.37;;;10.87;;
19905;SDS011;10115;50.906;4.438;2023-12-22T13:02:17;12.27;;;11.77;;
19905;SDS011;10115;50.906;4.438;2023-12-22T13:04:44;11.47;;;10.83;;
19905;SDS011;10115;50.906;4.438;2023-12-22T13:07:10;10.87;;;10.40;;
19905;SDS011;10115;50.906;4.438;2023-12-22T13:09:38;10.33;;;9.93;;
19905;SDS011;10115;50.906;4.438;2023-12-22T13:12:06;10.00;;;9.50;;
19905;SDS011;10115;50.906;4.438;2023-12-22T13:14:33;10.13;;;9.30;;
19905;SDS011;10115;50.906;4.438;2023-12-22T13:16:58;10.23;;;9.80;;
19905;SDS011;10115;50.906;4.438;2023-12-22T13:19:25;9.60;;;9.20;;
19905;SDS011;10115;50.906;4.438;2023-12-22T13:21:51;9.33;;;8.93;;
19905;SDS011;10115;50.906;4.438;2023-12-22T13:24:19;9.73;;;9.33;;
19905;SDS011;10115;50.906;4.438;2023-12-22T13:26:44;9.70;;;9.30;;
19905;SDS011;10115;50.906;4.438;2023-12-22T13:29:11;9.70;;;9.30;;
19905;SDS011;10115;50.906;4.438;2023-12-22T13:31:38;10.93;;;10.33;;
19905;SDS011;10115;50.906;4.438;2023-12-22T13:36:37;10.57;;;10.07;;
19905;SDS011;10115;50.906;4.438;2023-12-22T13:39:07;11.27;;;10.60;;
19905;SDS011;10115;50.906;4.438;2023-12-22T13:41:42;9.80;;;9.30;;
19905;SDS011;10115;50.906;4.438;2023-12-22T13:44:11;9.50;;;9.10;;
19905;SDS011;10115;50.906;4.438;2023-12-22T13:46:39;10.57;;;9.77;;
19905;SDS011;10115;50.906;4.438;2023-12-22T13:49:10;10.03;;;9.33;;
19905;SDS011;10115;50.906;4.438;2023-12-22T13:54:12;10.27;;;9.73;;
19905;SDS011;10115;50.906;4.438;2023-12-22T13:56:38;11.07;;;10.57;;
19905;SDS011;10115;50.906;4.438;2023-12-22T13:59:11;9.43;;;9.03;;
19905;SDS011;10115;50.906;4.438;2023-12-22T14:01:36;9.87;;;9.47;;
19905;SDS011;10115;50.906;4.438;2023-12-22T14:04:02;9.23;;;8.83;;
19905;SDS011;10115;50.906;4.438;2023-12-22T14:06:29;9.40;;;9.00;;
19905;SDS011;10115;50.906;4.438;2023-12-22T14:08:55;10.03;;;9.53;;
19905;SDS011;10115;50.906;4.438;2023-12-22T14:11:21;11.47;;;9.80;;
19905;SDS011;10115;50.906;4.438;2023-12-22T14:13:47;9.90;;;9.30;;
19905;SDS011;10115;50.906;4.438;2023-12-22T14:16:13;9.90;;;9.30;;
19905;SDS011;10115;50.906;4.438;2023-12-22T14:18:40;9.67;;;9.27;;
19905;SDS011;10115;50.906;4.438;2023-12-22T14:21:06;10.30;;;9.67;;
19905;SDS011;10115;50.906;4.438;2023-12-22T14:23:32;9.23;;;8.83;;
19905;SDS011;10115;50.906;4.438;2023-12-22T14:25:57;9.37;;;8.97;;
19905;SDS011;10115;50.906;4.438;2023-12-22T14:28:23;9.60;;;9.10;;
19905;SDS011;10115;50.906;4.438;2023-12-22T14:30:49;9.23;;;8.73;;
19905;SDS011;10115;50.906;4.438;2023-12-22T14:33:14;9.43;;;9.00;;
19905;SDS011;10115;50.906;4.438;2023-12-22T14:35:40;9.07;;;8.67;;